WetterOnline ( https://www.wetteronline.de )

Wetter aktuell PLZ Bereich 19336

Aktuelles Wetter: Seehausen (23m)

6-stündlich | Neueste Meldungen
Ortszeit Temperatur Wetter
So, 15.09. 14:00 23.1° C leicht bewölkt
So, 15.09. 8:00 11.9° C -
So, 15.09. 2:00 6.8° C wolkig
Sa, 14.09. 20:00 14.5° C wolkig
Sa, 14.09. 14:00 17.5° C leicht bewölkt
Sa, 14.09. 8:00 8.0° C leicht bewölkt
Sa, 14.09. 2:00 8.9° C wolkenlos
Fr, 13.09. 20:00 16.4° C bedeckt
Ortszeit Temperatur Wetter
So, 15.09. 18:00 21.8° C bedeckt
So, 15.09. 17:50 21.8° C bedeckt
So, 15.09. 17:40 22.2° C bedeckt
So, 15.09. 17:30 22.7° C bewölkt
So, 15.09. 17:20 22.7° C bewölkt
So, 15.09. 17:10 23.0° C bewölkt
So, 15.09. 17:00 23.5° C wolkig
So, 15.09. 16:30 24.2° C wolkig
So, 15.09. 16:00 23.6° C leicht bewölkt
So, 15.09. 15:30 23.9° C wolkig
So, 15.09. 15:00 23.3° C wolkig
Ortszeit Relative Feuchte Sichtweite
So, 15.09. 14:00 28% 20 km
So, 15.09. 8:00 65% 70 km
So, 15.09. 2:00 79% 35 km
Sa, 14.09. 20:00 51% 70 km
Sa, 14.09. 14:00 41% 70 km
Sa, 14.09. 8:00 91% 21 km
Sa, 14.09. 2:00 83% 55 km
Fr, 13.09. 20:00 51% 70 km
Ortszeit Relative Feuchte Sichtweite
So, 15.09. 18:00 50% 19 km
So, 15.09. 17:50 50% -
So, 15.09. 17:40 47% -
So, 15.09. 17:30 43% 50 km
So, 15.09. 17:20 43% -
So, 15.09. 17:10 39% -
So, 15.09. 17:00 35% 45 km
So, 15.09. 16:30 28% 35 km
So, 15.09. 16:00 28% 35 km
So, 15.09. 15:30 27% 30 km
So, 15.09. 15:00 25% 50 km
Ortszeit Niederschlagsmenge Niederschlagsart
So, 15.09. 14:00 0.0 l/m2 in 6 Std. -
So, 15.09. 8:00 0.0 l/m2 in 12 Std. -
So, 15.09. 2:00 0.0 l/m2 in 6 Std. -
Sa, 14.09. 20:00 0.0 l/m2 in 12 Std. -
Sa, 14.09. 14:00 0.0 l/m2 in 6 Std. -
Sa, 14.09. 8:00 0.0 l/m2 in 12 Std. -
Sa, 14.09. 2:00 0.0 l/m2 in 6 Std. -
Fr, 13.09. 20:00 0.1 l/m2 in 12 Std. -
Ortszeit Niederschlagsmenge Niederschlagsart
So, 15.09. 18:00 0.0 l/m2 in 1 Std. -
So, 15.09. 17:50 keine Meldung -
So, 15.09. 17:40 keine Meldung -
So, 15.09. 17:30 0.0 l/m2 in 1 Std. -
So, 15.09. 17:20 keine Meldung -
So, 15.09. 17:10 keine Meldung -
So, 15.09. 17:00 0.0 l/m2 in 1 Std. -
So, 15.09. 16:30 0.0 l/m2 in 1 Std. -
So, 15.09. 16:00 0.0 l/m2 in 1 Std. -
So, 15.09. 15:30 0.0 l/m2 in 1 Std. -
So, 15.09. 15:00 0.0 l/m2 in 1 Std. -
Ortszeit Stärke Spitze Richtung
km/h Bft. km/h Grad Sektor
So, 15.09. 14:00 31 5 46 250° W
So, 15.09. 8:00 15 3 22 220° SW
So, 15.09. 2:00 7 2 11 170° S
Sa, 14.09. 20:00 4 1 22 250° W
Sa, 14.09. 14:00 7 2 22 350° N
Sa, 14.09. 8:00 6 1 15 280° W
Sa, 14.09. 2:00 11 2 22 260° W
Fr, 13.09. 20:00 13 3 41 300° NW
Ortszeit Stärke Spitze Richtung
km/h Bft. km/h Grad Sektor
So, 15.09. 18:00 32 5 47 290° W
So, 15.09. 17:50 32 5 - 290° W
So, 15.09. 17:40 28 4 - 290° W
So, 15.09. 17:30 28 4 46 280° W
So, 15.09. 17:20 28 4 - 280° W
So, 15.09. 17:10 32 5 - 270° W
So, 15.09. 17:00 28 4 44 270° W
So, 15.09. 16:30 26 4 39 260° W
So, 15.09. 16:00 22 4 43 270° W
So, 15.09. 15:30 22 4 43 270° W
So, 15.09. 15:00 24 4 48 280° W
Ortszeit Untergrenze Bedeckung Gattung
total tief tief mittel hoch
So, 15.09. 14:00 8400 m 8/8 0/8 - - -
So, 15.09. 8:00 - - - - - -
So, 15.09. 2:00 10500 m 8/8 0/8 - - -
Sa, 14.09. 20:00 10500 m 8/8 0/8 - - -
Sa, 14.09. 14:00 9000 m 3/8 0/8 - - -
Sa, 14.09. 8:00 8400 m 4/8 0/8 - - -
Sa, 14.09. 2:00 - 0/8 0/8 - - -
Fr, 13.09. 20:00 6900 m 8/8 8/8 - - -
Ortszeit Bedeckungsgrad in Achtel und Wolkenuntergrenze
So, 15.09. 18:00 8(1470m)
So, 15.09. 17:50 8(1470m)
So, 15.09. 17:40 8(1500m) 8(2100m)
So, 15.09. 17:30 5(1500m) 7(1800m)
So, 15.09. 17:20 5(1500m) 7(1800m)
So, 15.09. 17:10 2(1500m) 7(1800m) 7(10500m)
So, 15.09. 17:00 1(1500m) 7(9000m) 7(10500m)
So, 15.09. 16:30 2(1500m) 3(1800m) 7(9000m)
So, 15.09. 16:00 8(9000m) 8(9000m)
So, 15.09. 15:30 8(9000m) 8(10500m) 8(10500m)
So, 15.09. 15:00 7(9000m) 7(10500m)
Ortszeit Luftdruck NN (hPa) Tendenz (hPa in 3 Std.)
So, 15.09. 14:00 1019 - 1,6
So, 15.09. 8:00 1022 - 2,2
So, 15.09. 2:00 1026 - 3,0
Sa, 14.09. 20:00 1030 - 1,2
Sa, 14.09. 14:00 1033 - 1,8
Sa, 14.09. 8:00 1035 + 0,5
Sa, 14.09. 2:00 1035 + 1,0
Fr, 13.09. 20:00 1032 + 1,4
Ortszeit Luftdruck NN (hPa) Tendenz (hPa in 3 Std.)
So, 15.09. 18:00 1017 - 0,5
So, 15.09. 17:50 1017 keine Meldung
So, 15.09. 17:40 1017 keine Meldung
So, 15.09. 17:30 1017 - 1,1
So, 15.09. 17:20 1017 keine Meldung
So, 15.09. 17:10 1017 keine Meldung
So, 15.09. 17:00 1017 - 1,7
So, 15.09. 16:30 1017 - 1,9
So, 15.09. 16:00 1017 - 1,9
So, 15.09. 15:30 1018 - 2,0
So, 15.09. 15:00 1018 - 1,9
Ortszeit Schneehöhe (cm)
So, 15.09. 14:00 -
So, 15.09. 8:00 -
So, 15.09. 2:00 -
Sa, 14.09. 20:00 -
Sa, 14.09. 14:00 -
Sa, 14.09. 8:00 -
Sa, 14.09. 2:00 -
Fr, 13.09. 20:00 -
Ortszeit Schneehöhe (cm)
So, 15.09. 18:00 -
So, 15.09. 17:50 -
So, 15.09. 17:40 -
So, 15.09. 17:30 -
So, 15.09. 17:20 -
So, 15.09. 17:10 -
So, 15.09. 17:00 -
So, 15.09. 16:30 -
So, 15.09. 16:00 -
So, 15.09. 15:30 -
So, 15.09. 15:00 -
Link zu dieser Seite / Seite empfehlen

Das Wetter in ...